ETGG

Gluecksburg / Meierwik Airport

Gluecksburg, Germany
METAR ETGG 201420Z 10006KT 7000 FEW025 03/M01 Q1023 WHT
Observed Flight Rules
Feb-20 @ 14:20 UTC (5 hours ago) Marginal Visual Flight Rules
Wind Visibility Clouds
100° at 6 knots 7,001 meters
  • Few at 2,500' AGL
Temperatures Readings
Current 3°C / 37°F
Dewpoint -1°C / 30°F
Humidity 75%
Altimeter 30.21" Hg
Pressure 1023 hPa
Elevation 33
METAR ETGG 201420Z 10006KT 7000 FEW025 03/M01 Q1023 WHT
Observed Flight Rules
Feb-20 @ 14:20 UTC
(5 hours ago)
MVFR
Wind Visibility
100° at 6 knots 7,001 meters
Clouds
  • Few at 2,500' AGL
Temperature Dewpoint
3°C / 37°F -1°C / 30°F
Humidity Altimeter Pressure
75% 30.21" Hg 1023 hPa